Terminal Aerodrome Forecast
Issued by NWS

Home | Current Version | Previous Version | Text Only | Print | Product List | Glossary On
Versions: 1 2 3 4 5 6 7 8 9 10 11 12 13
000
FTUS41 KBGM 281131
TAFELM
TAF
KELM 281131Z 2812/2912 00000KT 6SM BR SCT005 BKN250
      TEMPO 2812/2813 4SM BR BKN003
     FM281300 VRB03KT P6SM BKN250
     FM281700 20005KT P6SM BKN050
     FM290000 VRB03KT P6SM SCT050 BKN100=

USA.gov is the U.S. government's official web portal to all federal, state and local government web resources and services.